sensor_id;sensor_type;location;lat;lon;timestamp;P1;durP1;ratioP1;P2;durP2;ratioP2
77984;SDS011;67177;47.240;-1.546;2024-01-15T00:02:08;24.17;;;11.03;;
77984;SDS011;67177;47.240;-1.546;2024-01-15T00:04:37;24.38;;;11.40;;
77984;SDS011;67177;47.240;-1.546;2024-01-15T00:07:04;24.10;;;10.38;;
77984;SDS011;67177;47.240;-1.546;2024-01-15T00:09:30;23.15;;;10.35;;
77984;SDS011;67177;47.240;-1.546;2024-01-15T00:11:56;22.75;;;9.70;;
77984;SDS011;67177;47.240;-1.546;2024-01-15T00:14:22;21.43;;;9.47;;
77984;SDS011;67177;47.240;-1.546;2024-01-15T00:16:48;21.80;;;9.52;;
77984;SDS011;67177;47.240;-1.546;2024-01-15T00:19:16;24.42;;;10.75;;
77984;SDS011;67177;47.240;-1.546;2024-01-15T00:21:44;22.58;;;10.15;;
77984;SDS011;67177;47.240;-1.546;2024-01-15T00:24:10;22.73;;;9.88;;
77984;SDS011;67177;47.240;-1.546;2024-01-15T00:26:37;21.73;;;10.17;;
77984;SDS011;67177;47.240;-1.546;2024-01-15T00:29:02;23.88;;;10.43;;
77984;SDS011;67177;47.240;-1.546;2024-01-15T00:31:28;24.07;;;10.53;;
77984;SDS011;67177;47.240;-1.546;2024-01-15T00:33:57;25.92;;;10.80;;
77984;SDS011;67177;47.240;-1.546;2024-01-15T00:36:23;25.70;;;11.00;;
77984;SDS011;67177;47.240;-1.546;2024-01-15T00:38:48;23.88;;;10.20;;
77984;SDS011;67177;47.240;-1.546;2024-01-15T00:41:14;21.53;;;9.83;;
77984;SDS011;67177;47.240;-1.546;2024-01-15T00:43:40;22.77;;;9.73;;
77984;SDS011;67177;47.240;-1.546;2024-01-15T00:46:06;22.80;;;10.00;;
77984;SDS011;67177;47.240;-1.546;2024-01-15T00:48:32;21.98;;;9.65;;
77984;SDS011;67177;47.240;-1.546;2024-01-15T00:50:57;20.63;;;8.75;;
77984;SDS011;67177;47.240;-1.546;2024-01-15T00:53:23;19.80;;;8.50;;
77984;SDS011;67177;47.240;-1.546;2024-01-15T00:55:50;21.45;;;9.25;;
77984;SDS011;67177;47.240;-1.546;2024-01-15T00:58:16;22.60;;;9.53;;
77984;SDS011;67177;47.240;-1.546;2024-01-15T01:00:42;21.23;;;9.37;;
77984;SDS011;67177;47.240;-1.546;2024-01-15T01:03:08;20.52;;;8.75;;
77984;SDS011;67177;47.240;-1.546;2024-01-15T01:05:34;25.05;;;10.45;;
77984;SDS011;67177;47.240;-1.546;2024-01-15T01:07:59;20.90;;;8.43;;
77984;SDS011;67177;47.240;-1.546;2024-01-15T01:10:25;23.27;;;8.90;;
77984;SDS011;67177;47.240;-1.546;2024-01-15T01:12:51;22.92;;;9.85;;
77984;SDS011;67177;47.240;-1.546;2024-01-15T01:15:17;24.30;;;10.33;;
77984;SDS011;67177;47.240;-1.546;2024-01-15T01:17:43;24.57;;;10.97;;
77984;SDS011;67177;47.240;-1.546;2024-01-15T01:20:08;24.00;;;9.63;;
77984;SDS011;67177;47.240;-1.546;2024-01-15T01:22:35;22.08;;;10.38;;
77984;SDS011;67177;47.240;-1.546;2024-01-15T01:25:01;26.48;;;11.00;;
77984;SDS011;67177;47.240;-1.546;2024-01-15T01:27:27;23.13;;;9.77;;
77984;SDS011;67177;47.240;-1.546;2024-01-15T01:29:53;25.15;;;10.30;;
77984;SDS011;67177;47.240;-1.546;2024-01-15T01:32:18;23.33;;;10.17;;
77984;SDS011;67177;47.240;-1.546;2024-01-15T01:34:44;23.13;;;10.15;;
77984;SDS011;67177;47.240;-1.546;2024-01-15T01:37:10;23.77;;;10.93;;
77984;SDS011;67177;47.240;-1.546;2024-01-15T01:39:40;24.60;;;10.05;;
77984;SDS011;67177;47.240;-1.546;2024-01-15T01:42:06;23.67;;;10.75;;
77984;SDS011;67177;47.240;-1.546;2024-01-15T01:44:32;21.17;;;9.23;;
77984;SDS011;67177;47.240;-1.546;2024-01-15T01:46:58;21.30;;;8.82;;
77984;SDS011;67177;47.240;-1.546;2024-01-15T01:49:26;20.02;;;8.68;;
77984;SDS011;67177;47.240;-1.546;2024-01-15T01:51:52;21.47;;;8.87;;
77984;SDS011;67177;47.240;-1.546;2024-01-15T01:54:19;24.10;;;10.38;;
77984;SDS011;67177;47.240;-1.546;2024-01-15T01:56:46;23.83;;;10.18;;
77984;SDS011;67177;47.240;-1.546;2024-01-15T01:59:13;20.13;;;9.07;;
77984;SDS011;67177;47.240;-1.546;2024-01-15T02:01:39;19.50;;;8.33;;
77984;SDS011;67177;47.240;-1.546;2024-01-15T02:04:06;22.05;;;9.80;;
77984;SDS011;67177;47.240;-1.546;2024-01-15T02:06:33;21.38;;;9.13;;
77984;SDS011;67177;47.240;-1.546;2024-01-15T02:08:59;21.10;;;8.70;;
77984;SDS011;67177;47.240;-1.546;2024-01-15T02:11:24;21.15;;;9.63;;
77984;SDS011;67177;47.240;-1.546;2024-01-15T02:13:50;23.77;;;10.27;;
77984;SDS011;67177;47.240;-1.546;2024-01-15T02:16:16;28.33;;;10.50;;
77984;SDS011;67177;47.240;-1.546;2024-01-15T02:18:42;22.07;;;9.40;;
77984;SDS011;67177;47.240;-1.546;2024-01-15T02:21:09;23.42;;;9.52;;
77984;SDS011;67177;47.240;-1.546;2024-01-15T02:23:36;19.92;;;8.63;;
77984;SDS011;67177;47.240;-1.546;2024-01-15T02:26:02;19.92;;;8.60;;
77984;SDS011;67177;47.240;-1.546;2024-01-15T02:28:29;21.42;;;9.15;;
77984;SDS011;67177;47.240;-1.546;2024-01-15T02:30:55;21.63;;;9.20;;
77984;SDS011;67177;47.240;-1.546;2024-01-15T02:33:20;18.60;;;8.13;;
77984;SDS011;67177;47.240;-1.546;2024-01-15T02:35:46;19.60;;;8.60;;
77984;SDS011;67177;47.240;-1.546;2024-01-15T02:38:15;20.27;;;8.57;;
77984;SDS011;67177;47.240;-1.546;2024-01-15T02:40:40;19.53;;;8.23;;
77984;SDS011;67177;47.240;-1.546;2024-01-15T02:43:06;17.83;;;8.10;;
77984;SDS011;67177;47.240;-1.546;2024-01-15T02:45:32;17.37;;;7.70;;
77984;SDS011;67177;47.240;-1.546;2024-01-15T02:47:58;21.73;;;9.57;;
77984;SDS011;67177;47.240;-1.546;2024-01-15T02:50:23;20.80;;;8.80;;
77984;SDS011;67177;47.240;-1.546;2024-01-15T02:52:49;20.80;;;8.33;;
77984;SDS011;67177;47.240;-1.546;2024-01-15T02:55:14;19.08;;;8.07;;
77984;SDS011;67177;47.240;-1.546;2024-01-15T02:57:40;20.33;;;8.43;;
77984;SDS011;67177;47.240;-1.546;2024-01-15T03:00:06;18.92;;;8.15;;
77984;SDS011;67177;47.240;-1.546;2024-01-15T03:02:32;19.65;;;8.93;;
77984;SDS011;67177;47.240;-1.546;2024-01-15T03:05:01;20.40;;;8.48;;
77984;SDS011;67177;47.240;-1.546;2024-01-15T03:07:27;17.30;;;7.33;;
77984;SDS011;67177;47.240;-1.546;2024-01-15T03:09:53;18.88;;;8.05;;
77984;SDS011;67177;47.240;-1.546;2024-01-15T03:12:19;17.97;;;8.13;;
77984;SDS011;67177;47.240;-1.546;2024-01-15T03:14:44;18.65;;;8.52;;
77984;SDS011;67177;47.240;-1.546;2024-01-15T03:17:10;18.10;;;8.10;;
77984;SDS011;67177;47.240;-1.546;2024-01-15T03:19:37;17.80;;;8.30;;
77984;SDS011;67177;47.240;-1.546;2024-01-15T03:22:02;17.80;;;8.00;;
77984;SDS011;67177;47.240;-1.546;2024-01-15T03:24:28;17.30;;;7.63;;
77984;SDS011;67177;47.240;-1.546;2024-01-15T03:26:54;16.97;;;7.87;;
77984;SDS011;67177;47.240;-1.546;2024-01-15T03:29:20;15.65;;;6.93;;
77984;SDS011;67177;47.240;-1.546;2024-01-15T03:31:46;17.48;;;7.85;;
77984;SDS011;67177;47.240;-1.546;2024-01-15T03:34:12;14.73;;;6.27;;
77984;SDS011;67177;47.240;-1.546;2024-01-15T03:36:38;15.63;;;7.20;;
77984;SDS011;67177;47.240;-1.546;2024-01-15T03:39:03;13.93;;;6.03;;
77984;SDS011;67177;47.240;-1.546;2024-01-15T03:41:29;14.23;;;6.77;;
77984;SDS011;67177;47.240;-1.546;2024-01-15T03:43:55;15.77;;;7.30;;
77984;SDS011;67177;47.240;-1.546;2024-01-15T03:46:20;15.60;;;6.85;;
77984;SDS011;67177;47.240;-1.546;2024-01-15T03:48:46;15.80;;;7.73;;
77984;SDS011;67177;47.240;-1.546;2024-01-15T03:51:11;16.03;;;7.27;;
77984;SDS011;67177;47.240;-1.546;2024-01-15T03:53:38;13.93;;;6.15;;
77984;SDS011;67177;47.240;-1.546;2024-01-15T03:56:04;14.40;;;6.17;;
77984;SDS011;67177;47.240;-1.546;2024-01-15T03:58:29;14.50;;;6.57;;
77984;SDS011;67177;47.240;-1.546;2024-01-15T04:00:55;15.10;;;6.63;;
77984;SDS011;67177;47.240;-1.546;2024-01-15T04:03:21;15.07;;;6.82;;
77984;SDS011;67177;47.240;-1.546;2024-01-15T04:05:46;13.57;;;6.60;;
77984;SDS011;67177;47.240;-1.546;2024-01-15T04:08:12;14.60;;;6.57;;
77984;SDS011;67177;47.240;-1.546;2024-01-15T04:10:37;14.77;;;6.72;;
77984;SDS011;67177;47.240;-1.546;2024-01-15T04:13:03;14.47;;;6.13;;
77984;SDS011;67177;47.240;-1.546;2024-01-15T04:15:29;13.50;;;5.60;;
77984;SDS011;67177;47.240;-1.546;2024-01-15T04:17:54;13.10;;;5.63;;
77984;SDS011;67177;47.240;-1.546;2024-01-15T04:20:20;12.13;;;6.07;;
77984;SDS011;67177;47.240;-1.546;2024-01-15T04:22:45;12.55;;;5.72;;
77984;SDS011;67177;47.240;-1.546;2024-01-15T04:25:11;12.23;;;5.50;;
77984;SDS011;67177;47.240;-1.546;2024-01-15T04:27:37;13.40;;;5.23;;
77984;SDS011;67177;47.240;-1.546;2024-01-15T04:30:02;13.70;;;6.25;;
77984;SDS011;67177;47.240;-1.546;2024-01-15T04:32:28;12.85;;;5.55;;
77984;SDS011;67177;47.240;-1.546;2024-01-15T04:34:54;13.57;;;6.65;;
77984;SDS011;67177;47.240;-1.546;2024-01-15T04:37:20;13.00;;;6.00;;
77984;SDS011;67177;47.240;-1.546;2024-01-15T04:39:45;11.05;;;5.38;;
77984;SDS011;67177;47.240;-1.546;2024-01-15T04:42:11;12.20;;;5.37;;
77984;SDS011;67177;47.240;-1.546;2024-01-15T04:44:37;12.73;;;5.50;;
77984;SDS011;67177;47.240;-1.546;2024-01-15T04:47:02;13.65;;;6.00;;
77984;SDS011;67177;47.240;-1.546;2024-01-15T04:49:28;13.27;;;6.00;;
77984;SDS011;67177;47.240;-1.546;2024-01-15T04:51:55;11.18;;;5.35;;
77984;SDS011;67177;47.240;-1.546;2024-01-15T04:54:20;11.50;;;5.20;;
77984;SDS011;67177;47.240;-1.546;2024-01-15T04:56:46;12.97;;;6.00;;
77984;SDS011;67177;47.240;-1.546;2024-01-15T04:59:11;13.73;;;6.70;;
77984;SDS011;67177;47.240;-1.546;2024-01-15T05:01:39;14.70;;;6.68;;
77984;SDS011;67177;47.240;-1.546;2024-01-15T05:04:05;13.32;;;6.00;;
77984;SDS011;67177;47.240;-1.546;2024-01-15T05:06:30;14.05;;;6.20;;
77984;SDS011;67177;47.240;-1.546;2024-01-15T05:08:56;12.90;;;6.20;;
77984;SDS011;67177;47.240;-1.546;2024-01-15T05:11:22;13.13;;;6.07;;
77984;SDS011;67177;47.240;-1.546;2024-01-15T05:13:48;11.90;;;5.73;;
77984;SDS011;67177;47.240;-1.546;2024-01-15T05:16:13;12.48;;;5.75;;
77984;SDS011;67177;47.240;-1.546;2024-01-15T05:18:39;14.33;;;5.70;;
77984;SDS011;67177;47.240;-1.546;2024-01-15T05:21:04;12.38;;;5.72;;
77984;SDS011;67177;47.240;-1.546;2024-01-15T05:23:33;12.55;;;6.00;;
77984;SDS011;67177;47.240;-1.546;2024-01-15T05:25:59;11.32;;;5.47;;
77984;SDS011;67177;47.240;-1.546;2024-01-15T05:28:25;13.97;;;6.70;;
77984;SDS011;67177;47.240;-1.546;2024-01-15T05:30:50;13.63;;;6.10;;
77984;SDS011;67177;47.240;-1.546;2024-01-15T05:33:17;13.40;;;6.60;;
77984;SDS011;67177;47.240;-1.546;2024-01-15T05:35:42;12.68;;;5.88;;
77984;SDS011;67177;47.240;-1.546;2024-01-15T05:38:08;13.17;;;6.20;;
77984;SDS011;67177;47.240;-1.546;2024-01-15T05:40:34;11.85;;;5.63;;
77984;SDS011;67177;47.240;-1.546;2024-01-15T05:42:59;13.23;;;5.63;;
77984;SDS011;67177;47.240;-1.546;2024-01-15T05:45:29;13.57;;;6.03;;
77984;SDS011;67177;47.240;-1.546;2024-01-15T05:47:55;13.38;;;5.93;;
77984;SDS011;67177;47.240;-1.546;2024-01-15T05:50:21;11.53;;;5.43;;
77984;SDS011;67177;47.240;-1.546;2024-01-15T05:52:47;11.10;;;5.35;;
77984;SDS011;67177;47.240;-1.546;2024-01-15T05:55:13;12.27;;;4.80;;
77984;SDS011;67177;47.240;-1.546;2024-01-15T05:57:38;12.03;;;5.10;;
77984;SDS011;67177;47.240;-1.546;2024-01-15T06:00:04;10.98;;;5.22;;
77984;SDS011;67177;47.240;-1.546;2024-01-15T06:02:31;11.40;;;5.20;;
77984;SDS011;67177;47.240;-1.546;2024-01-15T06:04:56;9.85;;;4.63;;
77984;SDS011;67177;47.240;-1.546;2024-01-15T06:07:22;10.77;;;5.30;;
77984;SDS011;67177;47.240;-1.546;2024-01-15T06:09:48;9.70;;;4.88;;
77984;SDS011;67177;47.240;-1.546;2024-01-15T06:12:14;10.17;;;4.53;;
77984;SDS011;67177;47.240;-1.546;2024-01-15T06:14:40;9.15;;;4.47;;
77984;SDS011;67177;47.240;-1.546;2024-01-15T06:17:06;9.57;;;4.57;;
77984;SDS011;67177;47.240;-1.546;2024-01-15T06:19:32;10.65;;;4.78;;
77984;SDS011;67177;47.240;-1.546;2024-01-15T06:21:57;10.10;;;5.10;;
77984;SDS011;67177;47.240;-1.546;2024-01-15T06:24:23;10.73;;;4.85;;
77984;SDS011;67177;47.240;-1.546;2024-01-15T06:26:49;12.60;;;5.87;;
77984;SDS011;67177;47.240;-1.546;2024-01-15T06:29:14;12.45;;;6.05;;
77984;SDS011;67177;47.240;-1.546;2024-01-15T06:31:40;11.63;;;5.60;;
77984;SDS011;67177;47.240;-1.546;2024-01-15T06:34:06;12.68;;;6.30;;
77984;SDS011;67177;47.240;-1.546;2024-01-15T06:36:31;11.90;;;5.33;;
77984;SDS011;67177;47.240;-1.546;2024-01-15T06:38:57;13.60;;;6.23;;
77984;SDS011;67177;47.240;-1.546;2024-01-15T06:41:23;12.82;;;5.90;;
77984;SDS011;67177;47.240;-1.546;2024-01-15T06:43:50;13.10;;;6.10;;
77984;SDS011;67177;47.240;-1.546;2024-01-15T06:46:19;13.07;;;6.15;;
77984;SDS011;67177;47.240;-1.546;2024-01-15T06:48:46;12.15;;;6.07;;
77984;SDS011;67177;47.240;-1.546;2024-01-15T06:51:11;14.52;;;6.75;;
77984;SDS011;67177;47.240;-1.546;2024-01-15T06:53:37;14.17;;;6.93;;
77984;SDS011;67177;47.240;-1.546;2024-01-15T06:56:03;12.77;;;6.22;;
77984;SDS011;67177;47.240;-1.546;2024-01-15T06:58:30;13.90;;;6.03;;
77984;SDS011;67177;47.240;-1.546;2024-01-15T07:00:56;12.25;;;6.40;;
77984;SDS011;67177;47.240;-1.546;2024-01-15T07:03:22;14.30;;;6.18;;
77984;SDS011;67177;47.240;-1.546;2024-01-15T07:05:48;12.07;;;6.03;;
77984;SDS011;67177;47.240;-1.546;2024-01-15T07:08:14;13.20;;;6.30;;
77984;SDS011;67177;47.240;-1.546;2024-01-15T07:10:40;13.67;;;6.43;;
77984;SDS011;67177;47.240;-1.546;2024-01-15T07:13:05;13.30;;;6.28;;
77984;SDS011;67177;47.240;-1.546;2024-01-15T07:15:31;13.47;;;6.50;;
77984;SDS011;67177;47.240;-1.546;2024-01-15T07:17:56;12.03;;;5.47;;
77984;SDS011;67177;47.240;-1.546;2024-01-15T07:20:22;12.88;;;5.95;;
77984;SDS011;67177;47.240;-1.546;2024-01-15T07:22:48;12.90;;;6.10;;
77984;SDS011;67177;47.240;-1.546;2024-01-15T07:25:13;12.50;;;5.93;;
77984;SDS011;67177;47.240;-1.546;2024-01-15T07:27:41;13.43;;;5.93;;
77984;SDS011;67177;47.240;-1.546;2024-01-15T07:30:09;13.85;;;6.60;;
77984;SDS011;67177;47.240;-1.546;2024-01-15T07:32:36;12.20;;;5.20;;
77984;SDS011;67177;47.240;-1.546;2024-01-15T07:35:01;11.83;;;5.60;;
77984;SDS011;67177;47.240;-1.546;2024-01-15T07:37:27;11.88;;;5.28;;
77984;SDS011;67177;47.240;-1.546;2024-01-15T07:39:53;11.90;;;5.70;;
77984;SDS011;67177;47.240;-1.546;2024-01-15T07:42:19;12.18;;;5.10;;
77984;SDS011;67177;47.240;-1.546;2024-01-15T07:44:44;11.57;;;5.43;;
77984;SDS011;67177;47.240;-1.546;2024-01-15T07:47:10;12.57;;;5.60;;
77984;SDS011;67177;47.240;-1.546;2024-01-15T07:49:36;12.68;;;5.95;;
77984;SDS011;67177;47.240;-1.546;2024-01-15T07:52:01;12.87;;;6.03;;
77984;SDS011;67177;47.240;-1.546;2024-01-15T07:54:27;12.32;;;5.65;;
77984;SDS011;67177;47.240;-1.546;2024-01-15T07:56:56;12.43;;;5.83;;
77984;SDS011;67177;47.240;-1.546;2024-01-15T07:59:23;12.38;;;5.70;;
77984;SDS011;67177;47.240;-1.546;2024-01-15T08:01:49;13.43;;;6.60;;
77984;SDS011;67177;47.240;-1.546;2024-01-15T08:04:15;16.17;;;6.80;;
77984;SDS011;67177;47.240;-1.546;2024-01-15T08:06:40;14.13;;;6.43;;
77984;SDS011;67177;47.240;-1.546;2024-01-15T08:09:06;15.70;;;6.93;;
77984;SDS011;67177;47.240;-1.546;2024-01-15T08:11:33;13.85;;;6.38;;
77984;SDS011;67177;47.240;-1.546;2024-01-15T08:13:59;12.80;;;5.80;;
77984;SDS011;67177;47.240;-1.546;2024-01-15T08:16:25;13.45;;;5.82;;
77984;SDS011;67177;47.240;-1.546;2024-01-15T08:18:50;12.43;;;5.70;;
77984;SDS011;67177;47.240;-1.546;2024-01-15T08:21:16;12.67;;;5.43;;
77984;SDS011;67177;47.240;-1.546;2024-01-15T08:23:41;10.43;;;4.97;;
77984;SDS011;67177;47.240;-1.546;2024-01-15T08:26:07;13.23;;;5.73;;
77984;SDS011;67177;47.240;-1.546;2024-01-15T08:28:34;11.15;;;5.75;;
77984;SDS011;67177;47.240;-1.546;2024-01-15T08:30:59;12.10;;;5.80;;
77984;SDS011;67177;47.240;-1.546;2024-01-15T08:33:25;12.40;;;5.93;;
77984;SDS011;67177;47.240;-1.546;2024-01-15T08:35:50;12.97;;;5.80;;
77984;SDS011;67177;47.240;-1.546;2024-01-15T08:38:16;12.73;;;5.60;;
77984;SDS011;67177;47.240;-1.546;2024-01-15T08:40:42;11.18;;;5.28;;
77984;SDS011;67177;47.240;-1.546;2024-01-15T08:43:07;13.33;;;6.17;;
77984;SDS011;67177;47.240;-1.546;2024-01-15T08:45:33;14.43;;;6.50;;
77984;SDS011;67177;47.240;-1.546;2024-01-15T08:47:58;13.35;;;6.47;;
77984;SDS011;67177;47.240;-1.546;2024-01-15T08:50:24;13.73;;;6.30;;
77984;SDS011;67177;47.240;-1.546;2024-01-15T08:52:50;13.45;;;6.35;;
77984;SDS011;67177;47.240;-1.546;2024-01-15T08:55:16;12.65;;;5.95;;
77984;SDS011;67177;47.240;-1.546;2024-01-15T08:57:41;11.73;;;5.63;;
77984;SDS011;67177;47.240;-1.546;2024-01-15T09:00:08;12.48;;;5.43;;
77984;SDS011;67177;47.240;-1.546;2024-01-15T09:02:34;12.45;;;5.70;;
77984;SDS011;67177;47.240;-1.546;2024-01-15T09:05:01;10.75;;;4.82;;
77984;SDS011;67177;47.240;-1.546;2024-01-15T09:07:26;10.63;;;4.50;;
77984;SDS011;67177;47.240;-1.546;2024-01-15T09:09:52;10.82;;;5.20;;
77984;SDS011;67177;47.240;-1.546;2024-01-15T09:12:18;10.37;;;4.77;;
77984;SDS011;67177;47.240;-1.546;2024-01-15T09:14:46;10.25;;;4.55;;
77984;SDS011;67177;47.240;-1.546;2024-01-15T09:17:12;10.80;;;4.82;;
77984;SDS011;67177;47.240;-1.546;2024-01-15T09:19:38;10.03;;;4.60;;
77984;SDS011;67177;47.240;-1.546;2024-01-15T09:22:06;9.10;;;3.92;;
77984;SDS011;67177;47.240;-1.546;2024-01-15T09:24:32;10.43;;;4.70;;
77984;SDS011;67177;47.240;-1.546;2024-01-15T09:26:58;9.53;;;4.67;;
77984;SDS011;67177;47.240;-1.546;2024-01-15T09:29:23;12.93;;;5.73;;
77984;SDS011;67177;47.240;-1.546;2024-01-15T09:31:52;12.05;;;5.55;;
77984;SDS011;67177;47.240;-1.546;2024-01-15T09:34:18;10.87;;;4.97;;
77984;SDS011;67177;47.240;-1.546;2024-01-15T09:36:43;10.02;;;4.82;;
77984;SDS011;67177;47.240;-1.546;2024-01-15T09:39:09;11.40;;;5.17;;
77984;SDS011;67177;47.240;-1.546;2024-01-15T09:41:39;12.90;;;5.70;;
77984;SDS011;67177;47.240;-1.546;2024-01-15T09:44:05;12.70;;;5.60;;
77984;SDS011;67177;47.240;-1.546;2024-01-15T09:46:33;12.83;;;5.73;;
77984;SDS011;67177;47.240;-1.546;2024-01-15T09:49:00;10.82;;;5.47;;
77984;SDS011;67177;47.240;-1.546;2024-01-15T09:51:26;12.32;;;5.88;;
77984;SDS011;67177;47.240;-1.546;2024-01-15T09:53:56;13.43;;;6.15;;
77984;SDS011;67177;47.240;-1.546;2024-01-15T09:56:23;13.52;;;6.22;;
77984;SDS011;67177;47.240;-1.546;2024-01-15T09:58:49;14.60;;;7.00;;
77984;SDS011;67177;47.240;-1.546;2024-01-15T10:01:17;14.05;;;6.50;;
77984;SDS011;67177;47.240;-1.546;2024-01-15T10:03:45;13.50;;;6.07;;
77984;SDS011;67177;47.240;-1.546;2024-01-15T10:06:12;11.45;;;5.93;;
77984;SDS011;67177;47.240;-1.546;2024-01-15T10:08:42;12.55;;;6.20;;
77984;SDS011;67177;47.240;-1.546;2024-01-15T10:11:12;14.68;;;6.43;;
77984;SDS011;67177;47.240;-1.546;2024-01-15T10:13:38;13.10;;;6.07;;
77984;SDS011;67177;47.240;-1.546;2024-01-15T10:16:04;11.47;;;5.80;;
77984;SDS011;67177;47.240;-1.546;2024-01-15T10:18:31;13.60;;;6.13;;
77984;SDS011;67177;47.240;-1.546;2024-01-15T10:20:57;13.73;;;6.43;;
77984;SDS011;67177;47.240;-1.546;2024-01-15T10:23:23;11.60;;;5.57;;
77984;SDS011;67177;47.240;-1.546;2024-01-15T10:25:49;15.60;;;6.53;;
77984;SDS011;67177;47.240;-1.546;2024-01-15T10:28:16;12.00;;;6.40;;
77984;SDS011;67177;47.240;-1.546;2024-01-15T10:30:44;11.57;;;5.57;;
77984;SDS011;67177;47.240;-1.546;2024-01-15T10:33:09;11.38;;;5.28;;
77984;SDS011;67177;47.240;-1.546;2024-01-15T10:35:36;12.65;;;5.35;;
77984;SDS011;67177;47.240;-1.546;2024-01-15T10:38:03;13.43;;;6.67;;
77984;SDS011;67177;47.240;-1.546;2024-01-15T10:40:31;13.30;;;6.97;;
77984;SDS011;67177;47.240;-1.546;2024-01-15T10:42:57;11.13;;;5.05;;
77984;SDS011;67177;47.240;-1.546;2024-01-15T10:45:23;10.90;;;4.95;;
77984;SDS011;67177;47.240;-1.546;2024-01-15T10:47:49;11.43;;;5.43;;
77984;SDS011;67177;47.240;-1.546;2024-01-15T10:50:15;10.68;;;5.25;;
77984;SDS011;67177;47.240;-1.546;2024-01-15T10:52:41;12.27;;;6.03;;
77984;SDS011;67177;47.240;-1.546;2024-01-15T10:55:08;11.43;;;5.45;;
77984;SDS011;67177;47.240;-1.546;2024-01-15T10:57:36;10.27;;;4.97;;
77984;SDS011;67177;47.240;-1.546;2024-01-15T11:00:02;12.63;;;5.60;;
77984;SDS011;67177;47.240;-1.546;2024-01-15T11:02:31;11.90;;;5.75;;
77984;SDS011;67177;47.240;-1.546;2024-01-15T11:05:01;12.55;;;6.25;;
77984;SDS011;67177;47.240;-1.546;2024-01-15T11:07:27;10.82;;;5.07;;
77984;SDS011;67177;47.240;-1.546;2024-01-15T11:09:54;13.97;;;5.37;;
77984;SDS011;67177;47.240;-1.546;2024-01-15T11:12:20;11.48;;;5.30;;
77984;SDS011;67177;47.240;-1.546;2024-01-15T11:14:46;9.43;;;5.13;;
77984;SDS011;67177;47.240;-1.546;2024-01-15T11:17:14;11.48;;;5.60;;
77984;SDS011;67177;47.240;-1.546;2024-01-15T11:19:44;11.35;;;5.70;;
77984;SDS011;67177;47.240;-1.546;2024-01-15T11:25:01;10.53;;;4.73;;
77984;SDS011;67177;47.240;-1.546;2024-01-15T11:30:17;10.70;;;5.07;;
77984;SDS011;67177;47.240;-1.546;2024-01-15T11:32:45;10.60;;;4.93;;
77984;SDS011;67177;47.240;-1.546;2024-01-15T11:35:11;9.90;;;4.85;;
77984;SDS011;67177;47.240;-1.546;2024-01-15T11:42:59;11.40;;;5.75;;
77984;SDS011;67177;47.240;-1.546;2024-01-15T11:45:24;10.60;;;5.05;;
77984;SDS011;67177;47.240;-1.546;2024-01-15T11:48:12;10.75;;;5.57;;
77984;SDS011;67177;47.240;-1.546;2024-01-15T11:50:50;10.00;;;4.90;;
77984;SDS011;67177;47.240;-1.546;2024-01-15T11:55:44;11.40;;;5.88;;
77984;SDS011;67177;47.240;-1.546;2024-01-15T11:58:10;11.50;;;5.32;;
77984;SDS011;67177;47.240;-1.546;2024-01-15T12:00:47;10.07;;;4.90;;
77984;SDS011;67177;47.240;-1.546;2024-01-15T12:03:17;10.73;;;5.30;;
77984;SDS011;67177;47.240;-1.546;2024-01-15T12:05:45;9.63;;;4.95;;
77984;SDS011;67177;47.240;-1.546;2024-01-15T12:08:11;11.57;;;5.40;;
77984;SDS011;67177;47.240;-1.546;2024-01-15T12:10:37;10.90;;;5.20;;
77984;SDS011;67177;47.240;-1.546;2024-01-15T12:13:10;11.50;;;5.85;;
77984;SDS011;67177;47.240;-1.546;2024-01-15T12:15:40;11.85;;;5.38;;
77984;SDS011;67177;47.240;-1.546;2024-01-15T12:18:08;12.23;;;5.90;;
77984;SDS011;67177;47.240;-1.546;2024-01-15T12:20:34;11.45;;;5.38;;
77984;SDS011;67177;47.240;-1.546;2024-01-15T12:23:00;11.02;;;5.60;;
77984;SDS011;67177;47.240;-1.546;2024-01-15T12:25:28;11.40;;;5.47;;
77984;SDS011;67177;47.240;-1.546;2024-01-15T12:27:55;13.02;;;6.07;;
77984;SDS011;67177;47.240;-1.546;2024-01-15T12:30:21;12.17;;;5.70;;
77984;SDS011;67177;47.240;-1.546;2024-01-15T12:32:47;14.48;;;6.03;;
77984;SDS011;67177;47.240;-1.546;2024-01-15T12:35:13;14.20;;;6.28;;
77984;SDS011;67177;47.240;-1.546;2024-01-15T12:37:40;14.80;;;6.80;;
77984;SDS011;67177;47.240;-1.546;2024-01-15T12:40:07;16.17;;;7.10;;
77984;SDS011;67177;47.240;-1.546;2024-01-15T12:42:35;16.45;;;7.13;;
77984;SDS011;67177;47.240;-1.546;2024-01-15T12:45:10;15.10;;;6.93;;
77984;SDS011;67177;47.240;-1.546;2024-01-15T12:47:37;15.25;;;6.63;;
77984;SDS011;67177;47.240;-1.546;2024-01-15T12:50:06;14.63;;;6.93;;
77984;SDS011;67177;47.240;-1.546;2024-01-15T12:52:36;13.95;;;6.28;;
77984;SDS011;67177;47.240;-1.546;2024-01-15T12:55:06;13.15;;;6.55;;
77984;SDS011;67177;47.240;-1.546;2024-01-15T12:57:35;11.35;;;4.90;;
77984;SDS011;67177;47.240;-1.546;2024-01-15T13:00:02;11.93;;;4.97;;
77984;SDS011;67177;47.240;-1.546;2024-01-15T13:02:32;12.10;;;5.80;;
77984;SDS011;67177;47.240;-1.546;2024-01-15T13:04:58;12.40;;;5.25;;
77984;SDS011;67177;47.240;-1.546;2024-01-15T13:07:24;14.02;;;6.75;;
77984;SDS011;67177;47.240;-1.546;2024-01-15T13:09:50;12.70;;;5.87;;
77984;SDS011;67177;47.240;-1.546;2024-01-15T13:12:18;13.48;;;6.28;;
77984;SDS011;67177;47.240;-1.546;2024-01-15T13:14:45;13.35;;;6.10;;
77984;SDS011;67177;47.240;-1.546;2024-01-15T13:17:11;13.35;;;6.35;;
77984;SDS011;67177;47.240;-1.546;2024-01-15T13:19:37;13.47;;;6.30;;
77984;SDS011;67177;47.240;-1.546;2024-01-15T13:22:04;16.67;;;6.70;;
77984;SDS011;67177;47.240;-1.546;2024-01-15T13:24:32;13.80;;;6.33;;
77984;SDS011;67177;47.240;-1.546;2024-01-15T13:26:57;12.50;;;5.85;;
77984;SDS011;67177;47.240;-1.546;2024-01-15T13:29:23;12.53;;;5.73;;
77984;SDS011;67177;47.240;-1.546;2024-01-15T13:31:48;12.50;;;5.90;;
77984;SDS011;67177;47.240;-1.546;2024-01-15T13:34:14;15.13;;;5.93;;
77984;SDS011;67177;47.240;-1.546;2024-01-15T13:36:40;12.53;;;5.57;;
77984;SDS011;67177;47.240;-1.546;2024-01-15T13:39:06;11.02;;;5.13;;
77984;SDS011;67177;47.240;-1.546;2024-01-15T13:41:35;12.15;;;5.32;;
77984;SDS011;67177;47.240;-1.546;2024-01-15T13:44:01;12.15;;;5.13;;
77984;SDS011;67177;47.240;-1.546;2024-01-15T13:46:27;11.00;;;5.47;;
77984;SDS011;67177;47.240;-1.546;2024-01-15T13:48:54;11.93;;;5.38;;
77984;SDS011;67177;47.240;-1.546;2024-01-15T13:51:23;11.63;;;5.47;;
77984;SDS011;67177;47.240;-1.546;2024-01-15T13:53:49;13.07;;;5.82;;
77984;SDS011;67177;47.240;-1.546;2024-01-15T13:56:15;12.32;;;5.07;;
77984;SDS011;67177;47.240;-1.546;2024-01-15T13:58:41;10.98;;;5.32;;
77984;SDS011;67177;47.240;-1.546;2024-01-15T14:01:08;13.50;;;5.60;;
77984;SDS011;67177;47.240;-1.546;2024-01-15T14:03:34;11.10;;;4.72;;
77984;SDS011;67177;47.240;-1.546;2024-01-15T14:06:00;13.85;;;6.05;;
77984;SDS011;67177;47.240;-1.546;2024-01-15T14:08:28;12.30;;;5.80;;
77984;SDS011;67177;47.240;-1.546;2024-01-15T14:10:54;13.80;;;5.67;;
77984;SDS011;67177;47.240;-1.546;2024-01-15T14:13:22;12.90;;;5.63;;
77984;SDS011;67177;47.240;-1.546;2024-01-15T14:15:47;12.55;;;5.75;;
77984;SDS011;67177;47.240;-1.546;2024-01-15T14:18:14;15.77;;;5.80;;
77984;SDS011;67177;47.240;-1.546;2024-01-15T14:20:41;13.07;;;5.95;;
77984;SDS011;67177;47.240;-1.546;2024-01-15T14:23:06;13.13;;;5.33;;
77984;SDS011;67177;47.240;-1.546;2024-01-15T14:25:32;13.30;;;5.72;;
77984;SDS011;67177;47.240;-1.546;2024-01-15T14:27:58;11.70;;;5.57;;
77984;SDS011;67177;47.240;-1.546;2024-01-15T14:30:24;11.73;;;4.90;;